createdAt,value
2019-04-23T00:01:49.434Z,63.70
2019-04-23T00:04:10.423Z,63.60
2019-04-23T00:06:43.897Z,63.70
2019-04-23T00:09:15.521Z,63.40
2019-04-23T00:11:34.153Z,63.40
2019-04-23T00:14:02.768Z,63.30
2019-04-23T00:16:27.829Z,63.60
2019-04-23T00:18:46.058Z,63.50
2019-04-23T00:21:23.563Z,63.70
2019-04-23T00:23:47.879Z,63.80
2019-04-23T00:26:10.594Z,64.00
2019-04-23T00:28:37.412Z,64.20
2019-04-23T00:31:04.413Z,64.60
2019-04-23T00:35:50.157Z,64.80
2019-04-23T00:38:26.823Z,65.00
2019-04-23T00:40:47.375Z,64.90
2019-04-23T00:43:16.673Z,65.30
2019-04-23T00:48:09.305Z,65.80
2019-04-23T00:50:39.951Z,66.20
2019-04-23T00:52:57.608Z,66.80
2019-04-23T00:55:26.494Z,67.40
2019-04-23T00:57:50.513Z,67.40
2019-04-23T01:02:49.351Z,68.20
2019-04-23T01:05:10.286Z,68.40
2019-04-23T01:07:42.958Z,69.10
2019-04-23T01:10:02.751Z,69.80
2019-04-23T01:12:31.216Z,71.10
2019-04-23T01:14:56.355Z,71.10
2019-04-23T01:17:26.185Z,73.00
2019-04-23T01:19:51.793Z,73.80
2019-04-23T01:21:51.516Z,75.90
2019-04-23T01:24:23.215Z,76.00
2019-04-23T01:27:30.341Z,79.00
2019-04-23T01:29:38.884Z,79.00
2019-04-23T01:31:57.094Z,83.20
2019-04-23T01:34:31.331Z,83.20
2019-04-23T01:36:56.455Z,88.50
2019-04-23T01:39:23.118Z,88.40
2019-04-23T01:41:53.767Z,91.10
2019-04-23T01:44:14.360Z,93.30
2019-04-23T01:46:42.114Z,93.60
2019-04-23T01:49:07.863Z,94.70
2019-04-23T01:51:40.024Z,96.50
2019-04-23T01:53:59.697Z,96.50
2019-04-23T01:56:25.905Z,98.10
2019-04-23T01:58:57.385Z,98.10
2019-04-23T02:01:19.126Z,99.90
2019-04-23T02:03:48.550Z,99.90
2019-04-23T02:06:14.794Z,99.90
2019-04-23T02:08:40.503Z,99.90
2019-04-23T02:11:09.731Z,99.90
2019-04-23T02:13:36.335Z,99.90
2019-04-23T02:15:53.407Z,99.90
2019-04-23T02:18:20.586Z,99.90
2019-04-23T02:20:48.006Z,99.90
2019-04-23T02:23:19.654Z,99.90
2019-04-23T02:25:44.060Z,99.90
2019-04-23T02:28:09.102Z,99.90
2019-04-23T02:40:37.782Z,99.90
2019-04-23T02:43:00.837Z,99.90
2019-04-23T02:45:21.949Z,99.90
2019-04-23T02:48:10.759Z,99.90
2019-04-23T02:50:33.178Z,99.90
2019-04-23T02:57:29.744Z,99.90
2019-04-23T03:04:50.617Z,99.90
2019-04-23T03:12:18.470Z,99.90
2019-04-23T03:14:32.798Z,99.90
2019-04-23T03:16:58.412Z,99.90
2019-04-23T03:19:29.603Z,99.90
2019-04-23T03:21:57.664Z,99.90
2019-04-23T03:26:57.420Z,99.90
2019-04-23T03:35:09.745Z,99.90
2019-04-23T03:36:39.810Z,99.90
2019-04-23T03:48:47.849Z,99.90
2019-04-23T03:51:01.282Z,99.90
2019-04-23T03:53:45.777Z,99.90
2019-04-23T03:58:28.297Z,99.90
2019-04-23T04:00:58.449Z,99.90
2019-04-23T04:05:45.702Z,99.90
2019-04-23T04:10:44.603Z,99.90
2019-04-23T04:20:24.830Z,99.90
2019-04-23T04:25:14.388Z,99.90
2019-04-23T04:27:47.928Z,99.90
2019-04-23T04:30:10.774Z,99.90
2019-04-23T04:32:33.608Z,99.90
2019-04-23T04:37:40.438Z,99.90
2019-04-23T04:40:10.863Z,99.90
2019-04-23T04:44:56.789Z,99.90
2019-04-23T04:47:15.807Z,99.90
2019-04-23T04:49:44.432Z,99.90
2019-04-23T04:52:14.156Z,99.90
2019-04-23T04:54:24.191Z,99.90
2019-04-23T04:56:49.798Z,99.90
2019-04-23T04:59:18.157Z,99.90
2019-04-23T05:01:51.667Z,99.90
2019-04-23T05:06:44.283Z,99.90
2019-04-23T05:11:44.271Z,99.90
2019-04-23T05:14:08.542Z,99.90
2019-04-23T05:16:21.477Z,99.90
2019-04-23T05:18:49.421Z,99.90
2019-04-23T05:21:32.101Z,99.90
2019-04-23T05:23:43.289Z,99.90
2019-04-23T05:26:11.806Z,99.90
2019-04-23T05:28:40.928Z,99.90
2019-04-23T05:31:01.648Z,99.90
2019-04-23T05:33:21.922Z,99.90
2019-04-23T05:38:31.494Z,99.90
2019-04-23T05:41:03.279Z,99.90
2019-04-23T05:43:08.622Z,99.90
2019-04-23T05:45:34.755Z,99.90
2019-04-23T05:48:11.655Z,99.90
2019-04-23T05:50:37.967Z,99.90
2019-04-23T05:52:59.496Z,99.90
2019-04-23T05:55:18.718Z,99.90
2019-04-23T05:57:47.457Z,99.90
2019-04-23T06:00:19.844Z,99.90
2019-04-23T06:02:46.011Z,99.90
2019-04-23T06:05:03.831Z,99.90
2019-04-23T06:10:02.292Z,99.90
2019-04-23T06:12:18.721Z,99.90
2019-04-23T06:14:53.794Z,99.90
2019-04-23T06:17:17.776Z,99.90
2019-04-23T06:19:47.151Z,99.90
2019-04-23T06:24:35.086Z,99.90
2019-04-23T06:27:01.669Z,99.90
2019-04-23T06:29:32.131Z,99.90
2019-04-23T06:34:24.702Z,99.90
2019-04-23T06:36:46.511Z,99.90
2019-04-23T06:41:41.053Z,95.30
2019-04-23T06:44:14.452Z,92.80
2019-04-23T06:46:29.096Z,90.20
2019-04-23T06:48:56.729Z,85.00
2019-04-23T06:51:27.175Z,84.90
2019-04-23T06:53:45.065Z,81.50
2019-04-23T06:56:19.142Z,82.60
2019-04-23T06:58:37.488Z,80.50
2019-04-23T07:01:04.891Z,78.50
2019-04-23T07:03:38.883Z,77.10
2019-04-23T07:06:11.491Z,77.00
2019-04-23T07:08:39.892Z,77.10
2019-04-23T07:10:54.311Z,76.30
2019-04-23T07:13:21.421Z,74.70
2019-04-23T07:15:48.350Z,74.10
2019-04-23T07:18:08.712Z,72.30
2019-04-23T07:20:36.018Z,72.50
2019-04-23T07:23:04.900Z,71.80
2019-04-23T07:25:29.322Z,71.10
2019-04-23T07:27:48.975Z,71.70
2019-04-23T07:32:43.386Z,69.00
2019-04-23T07:37:43.074Z,67.80
2019-04-23T07:40:19.964Z,68.90
2019-04-23T07:42:34.411Z,68.00
2019-04-23T07:44:56.502Z,67.90
2019-04-23T07:50:04.117Z,68.90
2019-04-23T07:52:20.251Z,66.30
2019-04-23T07:54:44.107Z,66.30
2019-04-23T07:57:17.206Z,64.20
2019-04-23T07:59:47.092Z,63.50
2019-04-23T08:02:08.133Z,64.50
2019-04-23T08:04:31.731Z,63.20
2019-04-23T08:06:52.092Z,61.00
2019-04-23T08:09:17.580Z,61.10
2019-04-23T08:12:04.756Z,61.30
2019-04-23T08:14:27.617Z,61.30
2019-04-23T08:18:57.779Z,61.00
2019-04-23T08:21:29.602Z,60.90
2019-04-23T08:24:05.868Z,61.20
2019-04-23T08:26:29.557Z,60.20
2019-04-23T08:28:58.461Z,60.40
2019-04-23T08:31:19.356Z,60.90
2019-04-23T08:33:45.125Z,58.40
2019-04-23T08:41:10.239Z,58.90
2019-04-23T08:45:47.859Z,57.20
2019-04-23T08:48:21.751Z,58.00
2019-04-23T08:51:04.294Z,58.00
2019-04-23T08:53:26.386Z,58.10
2019-04-23T08:55:38.520Z,57.90
2019-04-23T08:57:56.389Z,57.80
2019-04-23T09:00:32.662Z,58.20
2019-04-23T09:03:02.769Z,57.90
2019-04-23T09:05:23.499Z,57.90
2019-04-23T09:07:57.256Z,56.90
2019-04-23T09:10:23.331Z,55.40
2019-04-23T09:12:45.957Z,55.40
2019-04-23T09:15:07.150Z,53.60
2019-04-23T09:17:36.089Z,53.40
2019-04-23T09:20:11.833Z,55.20
2019-04-23T09:24:55.717Z,55.50
2019-04-23T09:27:23.287Z,55.30
2019-04-23T09:29:51.410Z,56.80
2019-04-23T09:32:22.405Z,55.00
2019-04-23T09:34:43.271Z,53.80
2019-04-23T09:37:05.007Z,53.80
2019-04-23T09:39:30.756Z,53.00
2019-04-23T09:41:51.527Z,53.70
2019-04-23T09:44:45.771Z,53.30
2019-04-23T09:46:57.381Z,53.50
2019-04-23T09:54:09.487Z,54.90
2019-04-23T09:56:37.790Z,53.70
2019-04-23T09:59:07.134Z,53.70
2019-04-23T10:01:29.160Z,53.20
2019-04-23T10:03:39.029Z,54.30
2019-04-23T10:05:59.744Z,53.00
2019-04-23T10:08:24.207Z,53.50
2019-04-23T10:10:42.475Z,53.50
2019-04-23T10:13:08.495Z,54.10
2019-04-23T10:15:40.171Z,54.60
2019-04-23T10:18:02.506Z,54.60
2019-04-23T10:20:28.955Z,55.10
2019-04-23T10:22:56.516Z,55.90
2019-04-23T10:25:21.072Z,55.90
2019-04-23T10:27:53.232Z,55.50
2019-04-23T10:30:14.471Z,54.40
2019-04-23T10:32:40.094Z,54.30
2019-04-23T10:35:19.088Z,55.00
2019-04-23T10:37:42.693Z,54.20
2019-04-23T10:40:02.761Z,54.20
2019-04-23T10:42:26.622Z,54.10
2019-04-23T10:44:55.431Z,54.40
2019-04-23T10:47:45.258Z,54.80
2019-04-23T10:50:20.469Z,54.20
2019-04-23T10:53:04.632Z,53.50
2019-04-23T10:54:59.033Z,53.90
2019-04-23T10:57:31.182Z,54.60
2019-04-23T10:59:47.360Z,55.40
2019-04-23T11:02:32.883Z,54.60
2019-04-23T11:07:26.365Z,54.50
2019-04-23T11:09:50.278Z,55.60
2019-04-23T11:12:14.390Z,55.50
2019-04-23T11:14:42.206Z,54.70
2019-04-23T11:17:19.376Z,54.60
2019-04-23T11:19:31.965Z,55.20
2019-04-23T11:21:56.100Z,55.10
2019-04-23T11:24:32.449Z,55.70
2019-04-23T11:26:42.980Z,54.90
2019-04-23T11:29:17.394Z,54.60
2019-04-23T11:36:49.874Z,54.50
2019-04-23T11:41:25.136Z,55.00
2019-04-23T11:43:48.567Z,55.00
2019-04-23T11:51:41.103Z,55.40
2019-04-23T11:53:41.006Z,54.90
2019-04-23T11:56:02.612Z,54.90
2019-04-23T12:03:06.257Z,55.30
2019-04-23T12:08:21.193Z,54.90
2019-04-23T12:11:00.561Z,54.90
2019-04-23T12:13:08.144Z,55.10
2019-04-23T12:17:54.195Z,54.70
2019-04-23T12:20:25.354Z,54.10
2019-04-23T12:22:51.788Z,54.10
2019-04-23T12:27:33.159Z,54.30
2019-04-23T12:30:08.341Z,54.20
2019-04-23T12:35:16.707Z,54.60
2019-04-23T12:37:33.313Z,54.80
2019-04-23T12:39:49.507Z,54.60
2019-04-23T12:42:38.928Z,54.50
2019-04-23T12:44:51.675Z,54.80
2019-04-23T12:47:18.799Z,55.10
2019-04-23T12:49:53.090Z,55.10
2019-04-23T12:52:02.394Z,54.90
2019-04-23T12:54:47.820Z,55.00
2019-04-23T12:57:14.748Z,55.20
2019-04-23T12:59:23.460Z,55.20
2019-04-23T13:01:49.677Z,54.80
2019-04-23T13:04:09.689Z,54.90
2019-04-23T13:06:41.076Z,54.90
2019-04-23T13:09:16.498Z,54.80
2019-04-23T13:14:00.407Z,54.30
2019-04-23T13:16:37.665Z,54.30
2019-04-23T13:18:49.777Z,54.50
2019-04-23T13:21:38.389Z,56.10
2019-04-23T13:23:41.131Z,55.70
2019-04-23T13:25:59.816Z,55.30
2019-04-23T13:28:31.970Z,55.80
2019-04-23T13:33:35.506Z,55.60
2019-04-23T13:36:01.106Z,55.80
2019-04-23T13:38:27.526Z,55.30
2019-04-23T13:43:20.187Z,55.70
2019-04-23T13:46:01.549Z,55.50
2019-04-23T13:50:49.686Z,55.40
2019-04-23T13:55:17.271Z,55.30
2019-04-23T14:00:28.661Z,55.20
2019-04-23T14:02:43.407Z,55.10
2019-04-23T14:07:41.848Z,55.80
2019-04-23T14:10:13.150Z,55.30
2019-04-23T14:12:40.336Z,55.30
2019-04-23T14:15:01.383Z,55.10
2019-04-23T14:19:45.653Z,55.80
2019-04-23T14:22:31.151Z,56.00
2019-04-23T14:27:10.985Z,56.40
2019-04-23T14:29:38.865Z,56.00
2019-04-23T14:32:05.050Z,56.60
2019-04-23T14:34:35.333Z,56.50
2019-04-23T14:36:55.721Z,56.60
2019-04-23T14:39:21.559Z,56.40
2019-04-23T14:41:45.018Z,56.40
2019-04-23T14:53:47.886Z,57.20
2019-04-23T14:58:55.547Z,57.00
2019-04-23T15:08:39.867Z,57.00
2019-04-23T15:11:11.592Z,57.00
2019-04-23T15:13:41.303Z,57.70
2019-04-23T15:15:58.401Z,57.80
2019-04-23T15:18:25.027Z,57.50
2019-04-23T15:20:46.438Z,57.40
2019-04-23T15:23:29.202Z,58.20
2019-04-23T15:30:24.769Z,57.60
2019-04-23T15:33:03.887Z,57.40
2019-04-23T15:38:15.643Z,57.60
2019-04-23T15:40:19.819Z,57.50
2019-04-23T15:42:43.895Z,58.00
2019-04-23T15:47:32.891Z,58.20
2019-04-23T15:50:10.879Z,58.10
2019-04-23T15:52:30.271Z,58.80
2019-04-23T15:54:55.299Z,58.80
2019-04-23T15:57:28.369Z,58.60
2019-04-23T15:59:51.974Z,58.10
2019-04-23T16:01:43.553Z,58.10
2019-04-23T16:04:09.756Z,57.90
2019-04-23T16:06:36.879Z,57.90
2019-04-23T16:09:16.367Z,58.50
2019-04-23T16:11:47.845Z,58.20
2019-04-23T16:19:17.666Z,58.90
2019-04-23T16:21:48.376Z,59.30
2019-04-23T16:24:06.026Z,58.80
2019-04-23T16:29:20.500Z,58.90
2019-04-23T16:31:27.617Z,59.30
2019-04-23T16:33:54.340Z,59.60
2019-04-23T16:36:21.551Z,60.30
2019-04-23T16:41:11.279Z,60.80
2019-04-23T16:43:38.248Z,60.70
2019-04-23T16:46:02.749Z,60.40
2019-04-23T16:48:47.848Z,60.20
2019-04-23T16:53:21.444Z,60.30
2019-04-23T16:55:47.492Z,60.60
2019-04-23T16:58:23.232Z,60.70
2019-04-23T17:03:11.193Z,61.40
2019-04-23T17:05:34.171Z,61.70
2019-04-23T17:08:21.906Z,61.70
2019-04-23T17:10:29.535Z,61.30
2019-04-23T17:12:54.746Z,61.30
2019-04-23T17:15:27.348Z,61.40
2019-04-23T17:17:51.050Z,61.20
2019-04-23T17:20:25.746Z,61.80
2019-04-23T17:22:38.631Z,61.60
2019-04-23T17:25:15.969Z,62.20
2019-04-23T17:29:58.026Z,62.20
2019-04-23T17:32:38.497Z,62.40
2019-04-23T17:35:02.929Z,62.50
2019-04-23T17:39:46.973Z,63.50
2019-04-23T17:44:47.009Z,63.90
2019-04-23T17:47:02.705Z,64.00
2019-04-23T17:49:33.288Z,64.30
2019-04-23T17:51:55.858Z,64.60
2019-04-23T17:56:54.141Z,65.00
2019-04-23T17:59:20.539Z,65.50
2019-04-23T18:01:47.587Z,65.50
2019-04-23T18:11:23.041Z,66.90
2019-04-23T18:13:50.548Z,66.90
2019-04-23T18:16:30.757Z,67.30
2019-04-23T18:18:53.332Z,67.50
2019-04-23T18:21:29.420Z,68.00
2019-04-23T18:23:37.970Z,68.00
2019-04-23T18:25:58.129Z,68.30
2019-04-23T18:28:26.059Z,68.50
2019-04-23T18:30:56.647Z,68.80
2019-04-23T18:33:51.212Z,68.80
2019-04-23T18:35:37.780Z,69.20
2019-04-23T18:38:18.507Z,69.20
2019-04-23T18:40:56.073Z,69.50
2019-04-23T18:45:31.626Z,70.30
2019-04-23T18:48:10.173Z,70.40
2019-04-23T18:50:29.130Z,70.20
2019-04-23T18:55:24.341Z,71.40
2019-04-23T18:57:48.840Z,71.40
2019-04-23T19:00:21.394Z,71.80
2019-04-23T19:02:44.889Z,72.20
2019-04-23T19:07:43.187Z,72.70
2019-04-23T19:10:13.236Z,72.80
2019-04-23T19:12:26.565Z,72.80
2019-04-23T19:14:53.563Z,72.90
2019-04-23T19:19:46.497Z,73.80
2019-04-23T19:24:34.567Z,75.20
2019-04-23T19:27:10.685Z,75.20
2019-04-23T19:29:36.396Z,75.30
2019-04-23T19:34:24.760Z,75.80
2019-04-23T19:36:49.166Z,76.20
2019-04-23T19:39:11.540Z,76.90
2019-04-23T19:41:42.011Z,78.20
2019-04-23T19:44:03.435Z,79.10
2019-04-23T19:46:44.999Z,79.00
2019-04-23T19:48:58.002Z,79.40
2019-04-23T19:51:17.160Z,80.20
2019-04-23T19:56:29.208Z,80.00
2019-04-23T20:06:12.108Z,82.30
2019-04-23T20:08:34.005Z,83.30
2019-04-23T20:10:46.321Z,83.40
2019-04-23T20:13:21.702Z,83.50
2019-04-23T20:15:53.445Z,84.10
2019-04-23T20:18:00.935Z,85.00
2019-04-23T20:20:33.726Z,86.90
2019-04-23T20:25:53.744Z,87.50
2019-04-23T20:28:01.977Z,88.90
2019-04-23T20:37:59.520Z,91.00
2019-04-23T20:42:27.184Z,91.60
2019-04-23T20:47:15.571Z,92.80
2019-04-23T20:52:13.680Z,93.10
2019-04-23T20:57:17.919Z,94.90
2019-04-23T20:59:43.856Z,94.90
2019-04-23T21:02:10.222Z,95.20
2019-04-23T21:04:28.135Z,95.90
2019-04-23T21:06:57.661Z,96.10
2019-04-23T21:09:43.854Z,96.80
2019-04-23T21:11:47.917Z,97.30
2019-04-23T21:14:33.560Z,98.10
2019-04-23T21:16:37.530Z,98.10
2019-04-23T21:19:02.621Z,98.30
2019-04-23T21:21:33.072Z,98.30
2019-04-23T21:26:17.440Z,99.20
2019-04-23T21:28:43.704Z,99.60
2019-04-23T21:33:59.266Z,99.90
2019-04-23T21:36:13.894Z,99.90
2019-04-23T21:38:46.417Z,99.90
2019-04-23T21:41:05.536Z,99.90
2019-04-23T21:43:39.998Z,99.90
2019-04-23T21:48:15.625Z,99.90
2019-04-23T21:53:06.814Z,99.90
2019-04-23T21:55:42.526Z,99.90
2019-04-23T21:58:07.254Z,99.90
2019-04-23T22:00:36.321Z,99.90
2019-04-23T22:05:25.210Z,99.90
2019-04-23T22:10:12.091Z,99.90
2019-04-23T22:12:46.776Z,99.90
2019-04-23T22:15:22.243Z,99.90
2019-04-23T22:17:32.541Z,99.90
2019-04-23T22:20:05.644Z,99.90
2019-04-23T22:22:31.977Z,99.90
2019-04-23T22:24:48.529Z,99.90
2019-04-23T22:27:09.826Z,99.90
2019-04-23T22:29:42.034Z,99.90
2019-04-23T22:32:02.412Z,99.90
2019-04-23T22:39:23.653Z,99.90
2019-04-23T22:41:58.251Z,99.90
2019-04-23T22:44:39.969Z,99.90
2019-04-23T22:46:52.044Z,99.90
2019-04-23T22:51:47.551Z,99.90
2019-04-23T22:54:05.396Z,99.90
2019-04-23T22:56:35.270Z,99.90
2019-04-23T22:59:18.606Z,99.90
2019-04-23T23:03:51.295Z,99.90
2019-04-23T23:08:56.004Z,99.90
2019-04-23T23:11:08.526Z,99.90
2019-04-23T23:13:48.139Z,99.90
2019-04-23T23:16:01.086Z,99.90
2019-04-23T23:18:52.451Z,99.90
2019-04-23T23:20:55.861Z,99.90
2019-04-23T23:23:18.016Z,99.90
2019-04-23T23:28:13.357Z,99.90
2019-04-23T23:30:50.077Z,99.90
2019-04-23T23:33:03.842Z,99.90
2019-04-23T23:35:31.218Z,99.90
2019-04-23T23:38:02.579Z,99.90
2019-04-23T23:40:25.660Z,99.90
2019-04-23T23:42:58.303Z,99.90
2019-04-23T23:45:18.418Z,99.90
2019-04-23T23:47:38.093Z,99.90
2019-04-23T23:50:16.230Z,99.90
2019-04-23T23:52:40.988Z,99.90
2019-04-23T23:55:03.075Z,99.90
